createdAt,value
2022-12-08T00:00:36.195Z,53.75
2022-12-08T00:01:40.585Z,53.85
2022-12-08T00:02:45.424Z,54.18
2022-12-08T00:03:49.757Z,54.54
2022-12-08T00:04:53.865Z,54.5
2022-12-08T00:05:58.006Z,54.45
2022-12-08T00:07:02.136Z,53.96
2022-12-08T00:08:06.448Z,55.17
2022-12-08T00:09:10.653Z,54.07
2022-12-08T00:10:50.638Z,53.91
2022-12-08T00:11:54.722Z,54.69
2022-12-08T00:12:58.802Z,54.83
2022-12-08T00:14:02.899Z,54.24
2022-12-08T00:15:07.719Z,54.11
2022-12-08T00:16:12.106Z,55.25
2022-12-08T00:17:16.239Z,54.87
2022-12-08T00:18:20.324Z,55.06
2022-12-08T00:19:24.417Z,55.15
2022-12-08T00:20:28.487Z,54.39
2022-12-08T00:21:32.549Z,54.33
2022-12-08T00:22:36.604Z,54.36
2022-12-08T00:23:40.664Z,54.77
2022-12-08T00:24:44.887Z,55.13
2022-12-08T00:25:49.012Z,54.4
2022-12-08T00:26:53.166Z,54.76
2022-12-08T00:27:57.239Z,54.52
2022-12-08T00:29:01.308Z,54.52
2022-12-08T00:30:05.389Z,54.92
2022-12-08T00:31:09.473Z,55.38
2022-12-08T00:32:13.911Z,55.43
2022-12-08T00:33:17.992Z,54.79
2022-12-08T00:34:22.079Z,55.71
2022-12-08T00:35:26.183Z,55.85
2022-12-08T00:36:30.256Z,56.07
2022-12-08T00:37:34.341Z,56.22
2022-12-08T00:38:38.411Z,56.02
2022-12-08T00:39:42.502Z,56.02
2022-12-08T00:40:46.589Z,56.28
2022-12-08T00:41:50.661Z,55.63
2022-12-08T00:42:54.766Z,56.11
2022-12-08T00:43:58.847Z,55.48
2022-12-08T00:45:02.921Z,55.28
2022-12-08T00:46:07.190Z,56.42
2022-12-08T00:47:11.267Z,56.02
2022-12-08T00:48:15.338Z,55.83
2022-12-08T00:49:19.403Z,55.36
2022-12-08T00:50:23.476Z,56.08
2022-12-08T00:51:27.539Z,56.07
2022-12-08T00:52:31.615Z,56.15
2022-12-08T00:53:35.717Z,56.31
2022-12-08T00:54:39.840Z,55.85
2022-12-08T00:55:43.910Z,55.58
2022-12-08T00:56:47.980Z,55.62
2022-12-08T00:57:52.061Z,56.15
2022-12-08T00:58:56.156Z,55.95
2022-12-08T01:00:00.456Z,55.92
2022-12-08T01:01:04.839Z,55.78
2022-12-08T01:02:08.977Z,55.78
2022-12-08T01:03:13.239Z,55.77
2022-12-08T01:04:17.440Z,56.28
2022-12-08T01:05:21.500Z,55.95
2022-12-08T01:06:25.591Z,56.02
2022-12-08T01:07:29.694Z,56.11
2022-12-08T01:08:33.792Z,55.91
2022-12-08T01:09:37.864Z,56
2022-12-08T01:10:41.969Z,56.14
2022-12-08T01:11:46.031Z,56.18
2022-12-08T01:12:50.190Z,55.91
2022-12-08T01:13:54.261Z,55.75
2022-12-08T01:15:04.093Z,56.02
2022-12-08T01:16:08.147Z,55.88
2022-12-08T01:17:12.441Z,55.78
2022-12-08T01:18:16.565Z,55.71
2022-12-08T01:19:20.636Z,55.8
2022-12-08T01:20:24.688Z,55.84
2022-12-08T01:21:28.772Z,55.69
2022-12-08T01:22:32.829Z,55.86
2022-12-08T01:23:36.904Z,55.96
2022-12-08T01:24:40.971Z,56.02
2022-12-08T01:25:45.058Z,55.88
2022-12-08T01:26:49.154Z,55.68
2022-12-08T01:27:53.230Z,55.82
2022-12-08T01:28:57.305Z,55.95
2022-12-08T01:30:02.065Z,56.01
2022-12-08T01:31:06.694Z,56.02
2022-12-08T01:32:10.828Z,56.05
2022-12-08T01:33:14.923Z,55.85
2022-12-08T01:34:18.987Z,55.66
2022-12-08T01:35:23.060Z,55.96
2022-12-08T01:36:27.116Z,56.01
2022-12-08T01:37:31.195Z,55.86
2022-12-08T01:38:35.263Z,55.82
2022-12-08T01:39:39.349Z,55.8
2022-12-08T01:40:43.417Z,55.69
2022-12-08T01:41:47.554Z,55.85
2022-12-08T01:42:51.666Z,56.12
2022-12-08T01:43:55.746Z,56.23
2022-12-08T01:44:59.901Z,55.85
2022-12-08T01:46:04.231Z,55.94
2022-12-08T01:47:08.338Z,56.2
2022-12-08T01:48:12.627Z,55.89
2022-12-08T01:49:16.719Z,55.94
2022-12-08T01:50:20.798Z,55.95
2022-12-08T01:51:24.884Z,55.88
2022-12-08T01:52:28.977Z,55.7
2022-12-08T01:53:33.063Z,55.7
2022-12-08T01:54:37.221Z,55.69
2022-12-08T01:55:41.305Z,55.75
2022-12-08T01:56:45.387Z,55.8
2022-12-08T01:57:49.460Z,55.75
2022-12-08T01:58:53.524Z,55.73
2022-12-08T01:59:57.612Z,55.77
2022-12-08T02:01:01.867Z,55.69
2022-12-08T02:02:06.171Z,55.71
2022-12-08T02:03:10.283Z,55.63
2022-12-08T02:04:14.362Z,55.75
2022-12-08T02:05:18.484Z,55.69
2022-12-08T02:06:22.585Z,55.61
2022-12-08T02:07:26.660Z,55.75
2022-12-08T02:08:30.968Z,55.76
2022-12-08T02:09:35.054Z,55.59
2022-12-08T02:10:39.148Z,55.61
2022-12-08T02:11:43.261Z,55.63
2022-12-08T02:12:47.360Z,55.61
2022-12-08T02:13:51.412Z,55.57
2022-12-08T02:14:56.839Z,55.54
2022-12-08T02:16:02.737Z,55.58
2022-12-08T02:17:06.840Z,55.65
2022-12-08T02:18:10.941Z,55.47
2022-12-08T02:19:44.987Z,55.54
2022-12-08T02:20:49.066Z,55.47
2022-12-08T02:21:53.155Z,55.62
2022-12-08T02:22:57.257Z,55.4
2022-12-08T02:24:01.341Z,55.51
2022-12-08T02:25:05.404Z,55.45
2022-12-08T02:26:09.472Z,55.5
2022-12-08T02:27:13.556Z,55.72
2022-12-08T02:28:17.625Z,55.57
2022-12-08T02:29:21.698Z,55.57
2022-12-08T02:30:25.831Z,55.61
2022-12-08T02:31:30.240Z,55.69
2022-12-08T02:32:34.335Z,55.69
2022-12-08T02:33:38.441Z,55.66
2022-12-08T02:34:42.564Z,55.57
2022-12-08T02:35:46.656Z,55.69
2022-12-08T02:36:50.750Z,55.7
2022-12-08T02:37:54.825Z,55.61
2022-12-08T02:38:58.947Z,55.55
2022-12-08T02:40:04.590Z,55.58
2022-12-08T02:41:08.860Z,55.79
2022-12-08T02:42:12.997Z,55.72
2022-12-08T02:43:17.055Z,55.79
2022-12-08T02:44:21.154Z,55.72
2022-12-08T02:45:25.252Z,55.58
2022-12-08T02:46:29.673Z,55.5
2022-12-08T02:47:33.816Z,55.5
2022-12-08T02:48:37.897Z,55.57
2022-12-08T02:49:41.987Z,55.63
2022-12-08T02:50:46.081Z,55.56
2022-12-08T02:51:50.128Z,55.53
2022-12-08T02:52:54.194Z,55.51
2022-12-08T02:53:58.266Z,55.31
2022-12-08T02:55:02.333Z,55.46
2022-12-08T02:56:06.397Z,55.29
2022-12-08T02:57:10.486Z,55.36
2022-12-08T02:58:14.556Z,55.33
2022-12-08T02:59:18.622Z,55.37
2022-12-08T03:00:22.727Z,55.38
2022-12-08T03:01:27.057Z,55.44
2022-12-08T03:02:31.378Z,55.32
2022-12-08T03:03:35.471Z,55.3
2022-12-08T03:04:39.605Z,55.36
2022-12-08T03:05:43.686Z,55.36
2022-12-08T03:06:47.744Z,55.15
2022-12-08T03:07:52.022Z,54.83
2022-12-08T03:08:56.142Z,54.84
2022-12-08T03:10:00.209Z,54.93
2022-12-08T03:11:04.290Z,54.99
2022-12-08T03:12:08.348Z,55
2022-12-08T03:13:12.414Z,54.9
2022-12-08T03:14:16.485Z,54.72
2022-12-08T03:15:20.560Z,54.65
2022-12-08T03:16:24.972Z,54.5
2022-12-08T03:17:29.108Z,54.4
2022-12-08T03:18:33.180Z,54.26
2022-12-08T03:19:37.268Z,54.18
2022-12-08T03:20:41.349Z,54.1
2022-12-08T03:21:45.431Z,54.03
2022-12-08T03:22:49.531Z,53.95
2022-12-08T03:23:53.587Z,53.83
2022-12-08T03:24:57.663Z,53.75
2022-12-08T03:26:01.743Z,53.66
2022-12-08T03:27:05.834Z,53.62
2022-12-08T03:28:09.896Z,53.47
2022-12-08T03:29:13.994Z,53.39
2022-12-08T03:30:18.073Z,53.25
2022-12-08T03:31:22.353Z,53.21
2022-12-08T03:32:26.455Z,53.08
2022-12-08T03:33:30.546Z,53.03
2022-12-08T03:34:34.644Z,53
2022-12-08T03:35:38.724Z,52.95
2022-12-08T03:36:42.820Z,52.81
2022-12-08T03:37:46.918Z,52.8
2022-12-08T03:38:50.985Z,52.77
2022-12-08T03:39:55.058Z,52.79
2022-12-08T03:40:59.150Z,52.8
2022-12-08T03:42:03.221Z,52.63
2022-12-08T03:43:07.354Z,52.58
2022-12-08T03:44:11.453Z,52.58
2022-12-08T03:45:15.537Z,52.48
2022-12-08T03:47:23.677Z,52.43
2022-12-08T03:48:27.756Z,52.27
2022-12-08T03:49:31.861Z,52.28
2022-12-08T03:50:35.949Z,52.12
2022-12-08T03:51:40.044Z,52.19
2022-12-08T03:52:44.099Z,52.1
2022-12-08T03:53:48.192Z,52.19
2022-12-08T03:54:52.271Z,52.08
2022-12-08T03:55:56.345Z,52.06
2022-12-08T03:57:00.484Z,51.9
2022-12-08T03:58:04.545Z,51.89
2022-12-08T03:59:08.653Z,51.83
2022-12-08T04:00:12.736Z,51.82
2022-12-08T04:01:16.784Z,51.93
2022-12-08T04:02:21.132Z,51.98
2022-12-08T04:03:25.529Z,51.81
2022-12-08T04:04:29.636Z,51.76
2022-12-08T04:05:33.707Z,51.74
2022-12-08T04:06:37.773Z,51.68
2022-12-08T04:07:42.108Z,51.72
2022-12-08T04:08:46.217Z,51.72
2022-12-08T04:09:50.307Z,51.63
2022-12-08T04:10:54.378Z,51.62
2022-12-08T04:11:58.466Z,51.56
2022-12-08T04:13:05.039Z,51.57
2022-12-08T04:14:09.288Z,51.49
2022-12-08T04:15:13.462Z,51.48
2022-12-08T04:16:17.851Z,51.5
2022-12-08T04:17:21.968Z,51.49
2022-12-08T04:18:26.056Z,51.55
2022-12-08T04:19:30.125Z,51.53
2022-12-08T04:20:34.185Z,51.65
2022-12-08T04:21:38.244Z,51.73
2022-12-08T04:22:42.575Z,51.75
2022-12-08T04:23:47.113Z,51.75
2022-12-08T04:24:51.165Z,51.81
2022-12-08T04:25:55.245Z,51.84
2022-12-08T04:26:59.313Z,51.96
2022-12-08T04:28:03.369Z,52.05
2022-12-08T04:29:07.451Z,52.11
2022-12-08T04:30:11.521Z,52.25
2022-12-08T04:31:15.739Z,52.29
2022-12-08T04:32:19.872Z,52.33
2022-12-08T04:33:23.955Z,52.37
2022-12-08T04:34:28.069Z,52.47
2022-12-08T04:35:32.782Z,52.4
2022-12-08T04:36:36.846Z,52.37
2022-12-08T04:37:40.908Z,52.27
2022-12-08T04:38:45.038Z,52.2
2022-12-08T04:39:49.152Z,52.22
2022-12-08T04:40:53.232Z,52.17
2022-12-08T04:41:57.311Z,52.15
2022-12-08T04:43:01.394Z,52.19
2022-12-08T04:44:05.468Z,52.13
2022-12-08T04:45:09.553Z,52.09
2022-12-08T04:46:13.878Z,52.11
2022-12-08T04:47:18.189Z,52.16
2022-12-08T04:48:22.346Z,52.17
2022-12-08T04:49:26.535Z,52.23
2022-12-08T04:50:30.632Z,52.23
2022-12-08T04:51:34.699Z,52.37
2022-12-08T04:52:38.806Z,52.47
2022-12-08T04:53:48.486Z,52.52
2022-12-08T04:54:52.563Z,52.57
2022-12-08T04:55:56.697Z,52.63
2022-12-08T04:57:00.784Z,52.7
2022-12-08T04:58:04.858Z,52.64
2022-12-08T04:59:08.915Z,52.67
2022-12-08T05:00:12.990Z,52.62
2022-12-08T05:01:17.429Z,52.61
2022-12-08T05:02:21.920Z,52.62
2022-12-08T05:03:30.371Z,52.49
2022-12-08T05:04:34.529Z,52.42
2022-12-08T05:05:38.923Z,52.43
2022-12-08T05:06:43.022Z,52.39
2022-12-08T05:07:47.401Z,52.41
2022-12-08T05:08:51.498Z,52.39
2022-12-08T05:09:55.558Z,52.47
2022-12-08T05:10:59.645Z,52.48
2022-12-08T05:12:03.776Z,52.5
2022-12-08T05:13:07.872Z,52.59
2022-12-08T05:14:11.961Z,52.65
2022-12-08T05:15:16.037Z,52.67
2022-12-08T05:16:20.305Z,52.66
2022-12-08T05:17:24.461Z,52.66
2022-12-08T05:18:28.618Z,52.68
2022-12-08T05:19:32.672Z,52.6
2022-12-08T05:20:36.740Z,52.63
2022-12-08T05:21:40.786Z,52.61
2022-12-08T05:22:44.878Z,52.59
2022-12-08T05:23:48.986Z,52.57
2022-12-08T05:24:53.120Z,52.55
2022-12-08T05:25:57.191Z,52.48
2022-12-08T05:27:01.295Z,52.51
2022-12-08T05:28:44.340Z,52.5
2022-12-08T05:29:48.460Z,52.46
2022-12-08T05:30:52.536Z,52.48
2022-12-08T05:31:56.862Z,52.46
2022-12-08T05:33:00.986Z,52.46
2022-12-08T05:34:05.592Z,52.6
2022-12-08T05:35:09.643Z,52.65
2022-12-08T05:36:13.754Z,52.71
2022-12-08T05:37:17.815Z,52.76
2022-12-08T05:38:21.875Z,52.83
2022-12-08T05:39:25.957Z,52.89
2022-12-08T05:40:30.039Z,52.9
2022-12-08T05:41:34.121Z,52.94
2022-12-08T05:42:38.170Z,52.98
2022-12-08T05:43:42.225Z,53.04
2022-12-08T05:44:46.309Z,53.05
2022-12-08T05:45:50.636Z,53.09
2022-12-08T05:46:54.783Z,53.11
2022-12-08T05:47:58.843Z,53.13
2022-12-08T05:49:02.940Z,53.13
2022-12-08T05:50:08.085Z,53.16
2022-12-08T05:51:12.157Z,53.18
2022-12-08T05:52:16.220Z,53.19
2022-12-08T05:53:20.300Z,53.2
2022-12-08T05:54:24.380Z,53.22
2022-12-08T05:55:28.470Z,53.23
2022-12-08T05:56:32.532Z,53.25
2022-12-08T05:57:36.630Z,53.29
2022-12-08T05:58:40.715Z,53.29
2022-12-08T05:59:44.828Z,53.33
2022-12-08T06:00:48.916Z,53.37
2022-12-08T06:01:53.192Z,53.36
2022-12-08T06:02:57.983Z,53.37
2022-12-08T06:04:02.171Z,53.45
2022-12-08T06:05:06.407Z,53.48
2022-12-08T06:06:10.477Z,53.52
2022-12-08T06:07:18.015Z,53.55
2022-12-08T06:08:22.385Z,52.27
2022-12-08T06:09:26.534Z,52.51
2022-12-08T06:10:30.626Z,52.88
2022-12-08T06:11:34.731Z,53.04
2022-12-08T06:12:38.783Z,53.17
2022-12-08T06:13:42.868Z,53.28
2022-12-08T06:14:46.948Z,53.33
2022-12-08T06:15:51.008Z,53.36
2022-12-08T06:16:55.574Z,53.38
2022-12-08T06:17:59.692Z,53.47
2022-12-08T06:19:03.766Z,53.4
2022-12-08T06:20:08.673Z,53.34
2022-12-08T06:21:12.730Z,53.44
2022-12-08T06:22:16.842Z,53.34
2022-12-08T06:23:21.087Z,53.36
2022-12-08T06:24:25.271Z,53.43
2022-12-08T06:25:29.339Z,53.13
2022-12-08T06:26:33.455Z,53.44
2022-12-08T06:27:37.548Z,53
2022-12-08T06:28:41.664Z,53.05
2022-12-08T06:29:45.826Z,53.17
2022-12-08T06:30:50.107Z,53.06
2022-12-08T06:31:54.593Z,53.31
2022-12-08T06:32:58.710Z,53.47
2022-12-08T06:34:02.784Z,53.34
2022-12-08T06:35:06.888Z,53.78
2022-12-08T06:36:10.955Z,53.62
2022-12-08T06:37:15.056Z,53.73
2022-12-08T06:38:19.207Z,53.78
2022-12-08T06:39:23.317Z,53.96
2022-12-08T06:40:27.415Z,53.7
2022-12-08T06:41:31.511Z,53.77
2022-12-08T06:42:35.659Z,53.69
2022-12-08T06:43:39.776Z,53.94
2022-12-08T06:44:43.983Z,53.88
2022-12-08T06:45:48.323Z,54.17
2022-12-08T06:46:52.478Z,54.1
2022-12-08T06:47:56.669Z,54.04
2022-12-08T06:49:00.761Z,54.12
2022-12-08T06:50:06.291Z,53.75
2022-12-08T06:51:10.561Z,53.7
2022-12-08T06:52:14.691Z,54.04
2022-12-08T06:53:18.807Z,54.17
2022-12-08T06:54:22.895Z,54.23
2022-12-08T06:56:01.001Z,54.43
2022-12-08T06:57:05.079Z,54.51
2022-12-08T06:58:09.150Z,54.61
2022-12-08T06:59:13.220Z,54.42
2022-12-08T07:00:17.305Z,54.37
2022-12-08T07:01:21.720Z,54.24
2022-12-08T07:02:26.153Z,53.72
2022-12-08T07:03:30.234Z,52.26
2022-12-08T07:04:34.346Z,53.16
2022-12-08T07:05:38.428Z,52.45
2022-12-08T07:06:42.527Z,51.86
2022-12-08T07:07:46.874Z,52.42
2022-12-08T07:08:51.064Z,51.34
2022-12-08T07:09:55.157Z,51.02
2022-12-08T07:10:59.376Z,52.5
2022-12-08T07:12:03.460Z,52.04
2022-12-08T07:13:07.548Z,51.28
2022-12-08T07:14:11.625Z,51.5
2022-12-08T07:15:15.708Z,51.2
2022-12-08T07:16:20.089Z,51.97
2022-12-08T07:17:24.206Z,52.01
2022-12-08T07:18:28.291Z,51.62
2022-12-08T07:19:47.499Z,51.79
2022-12-08T07:20:51.587Z,51.65
2022-12-08T07:21:55.670Z,51.51
2022-12-08T07:22:59.764Z,51.62
2022-12-08T07:24:03.951Z,51.49
2022-12-08T07:25:08.069Z,51.65
2022-12-08T07:26:12.159Z,51.72
2022-12-08T07:27:16.253Z,51.49
2022-12-08T07:28:20.318Z,51.64
2022-12-08T07:29:28.196Z,50.83
2022-12-08T07:30:32.591Z,50.46
2022-12-08T07:31:36.759Z,50.94
2022-12-08T07:32:40.865Z,51.09
2022-12-08T07:33:44.942Z,51.22
2022-12-08T07:34:49.343Z,51.29
2022-12-08T07:35:53.430Z,51.44
2022-12-08T07:36:57.529Z,51.65
2022-12-08T07:38:01.619Z,51.57
2022-12-08T07:39:05.697Z,51.87
2022-12-08T07:40:10.175Z,51.95
2022-12-08T07:41:14.250Z,52.01
2022-12-08T07:42:18.404Z,52.03
2022-12-08T07:43:22.466Z,51.99
2022-12-08T07:44:26.527Z,52.04
2022-12-08T07:45:33.767Z,52.1
2022-12-08T07:46:38.147Z,52.27
2022-12-08T07:47:42.324Z,52.22
2022-12-08T07:48:46.413Z,52.33
2022-12-08T07:49:50.505Z,52.31
2022-12-08T07:50:54.578Z,52.19
2022-12-08T07:51:58.682Z,52.26
2022-12-08T07:53:02.787Z,52.24
2022-12-08T07:54:06.868Z,52.23
2022-12-08T07:55:10.978Z,52.28
2022-12-08T07:56:15.088Z,52.32
2022-12-08T07:57:19.194Z,52.32
2022-12-08T07:58:23.284Z,52.26
2022-12-08T07:59:27.397Z,52.4
2022-12-08T08:00:31.758Z,52.4
2022-12-08T08:01:36.436Z,52.3
2022-12-08T08:02:41.182Z,52.34
2022-12-08T08:03:45.403Z,52.26
2022-12-08T08:04:49.933Z,52.33
2022-12-08T08:05:54.078Z,52.32
2022-12-08T08:06:58.170Z,52.29
2022-12-08T08:08:02.630Z,52.34
2022-12-08T08:09:06.740Z,52.48
2022-12-08T08:10:10.810Z,52.5
2022-12-08T08:11:23.277Z,52.34
2022-12-08T08:12:35.173Z,52.37
2022-12-08T08:13:39.228Z,52.39
2022-12-08T08:14:43.304Z,52.39
2022-12-08T08:15:47.804Z,52.35
2022-12-08T08:16:52.330Z,52.46
2022-12-08T08:17:56.547Z,52.45
2022-12-08T08:19:00.654Z,52.41
2022-12-08T08:20:05.978Z,52.42
2022-12-08T08:21:47.221Z,52.42
2022-12-08T08:22:51.315Z,52.46
2022-12-08T08:23:55.402Z,52.44
2022-12-08T08:24:59.570Z,52.38
2022-12-08T08:26:03.720Z,52.45
2022-12-08T08:27:07.816Z,52.38
2022-12-08T08:28:11.871Z,52.37
2022-12-08T08:29:15.994Z,52.36
2022-12-08T08:30:22.790Z,52.42
2022-12-08T08:31:27.350Z,52.45
2022-12-08T08:32:31.475Z,52.62
2022-12-08T08:33:35.584Z,52.4
2022-12-08T08:34:39.676Z,52.47
2022-12-08T08:35:43.758Z,52.46
2022-12-08T08:36:48.110Z,52.39
2022-12-08T08:37:52.230Z,52.45
2022-12-08T08:38:56.295Z,52.44
2022-12-08T08:40:00.416Z,52.5
2022-12-08T08:41:04.511Z,52.49
2022-12-08T08:42:08.596Z,52.51
2022-12-08T08:43:12.962Z,52.48
2022-12-08T08:44:17.037Z,52.53
2022-12-08T08:45:21.126Z,52.5
2022-12-08T08:46:25.451Z,52.45
2022-12-08T08:47:29.574Z,52.48
2022-12-08T08:48:33.784Z,52.47
2022-12-08T08:49:37.863Z,52.43
2022-12-08T08:50:41.968Z,52.41
2022-12-08T08:51:46.095Z,52.68
2022-12-08T08:52:50.163Z,52.47
2022-12-08T08:53:54.239Z,52.44
2022-12-08T08:54:58.369Z,52.46
2022-12-08T08:56:04.755Z,52.39
2022-12-08T08:57:08.819Z,52.43
2022-12-08T08:58:12.930Z,52.41
2022-12-08T08:59:17.023Z,52.41
2022-12-08T09:00:21.084Z,52.42
2022-12-08T09:01:25.441Z,52.41
2022-12-08T09:02:29.560Z,52.6
2022-12-08T09:03:33.677Z,52.5
2022-12-08T09:04:38.173Z,52.56
2022-12-08T09:05:42.510Z,52.4
2022-12-08T09:06:46.603Z,52.41
2022-12-08T09:07:50.874Z,52.4
2022-12-08T09:08:54.958Z,52.41
2022-12-08T09:10:04.335Z,52.54
2022-12-08T09:11:08.656Z,52.64
2022-12-08T09:12:12.861Z,52.58
2022-12-08T09:13:17.035Z,52.42
2022-12-08T09:14:21.134Z,52.44
2022-12-08T09:15:25.215Z,52.5
2022-12-08T09:16:29.527Z,52.51
2022-12-08T09:17:33.688Z,52.46
2022-12-08T09:18:37.770Z,52.5
2022-12-08T09:19:41.873Z,52.38
2022-12-08T09:20:45.956Z,52.46
2022-12-08T09:21:50.061Z,52.5
2022-12-08T09:22:54.147Z,52.42
2022-12-08T09:23:58.234Z,52.48
2022-12-08T09:25:02.287Z,52.41
2022-12-08T09:26:06.350Z,52.38
2022-12-08T09:27:10.435Z,52.41
2022-12-08T09:28:14.541Z,52.39
2022-12-08T09:29:18.735Z,52.48
2022-12-08T09:30:22.936Z,52.4
2022-12-08T09:31:27.537Z,52.48
2022-12-08T09:32:31.678Z,52.38
2022-12-08T09:33:35.772Z,52.59
2022-12-08T09:34:39.830Z,52.4
2022-12-08T09:35:43.928Z,52.49
2022-12-08T09:36:47.991Z,52.63
2022-12-08T09:37:52.048Z,52.46
2022-12-08T09:38:56.124Z,52.56
2022-12-08T09:40:00.215Z,52.38
2022-12-08T09:41:04.302Z,52.41
2022-12-08T09:42:08.402Z,52.39
2022-12-08T09:43:12.516Z,52.46
2022-12-08T09:44:16.609Z,52.36
2022-12-08T09:45:20.692Z,52.35
2022-12-08T09:46:25.014Z,52.46
2022-12-08T09:47:37.355Z,52.42
2022-12-08T09:48:41.427Z,52.41
2022-12-08T09:49:45.520Z,52.51
2022-12-08T09:50:49.631Z,52.41
2022-12-08T09:51:53.722Z,52.63
2022-12-08T09:52:57.864Z,52.55
2022-12-08T09:54:02.059Z,52.38
2022-12-08T09:55:06.185Z,52.46
2022-12-08T09:56:10.281Z,52.43
2022-12-08T09:57:14.364Z,52.38
2022-12-08T09:58:18.452Z,52.71
2022-12-08T09:59:22.569Z,52.34
2022-12-08T10:00:26.661Z,52.4
2022-12-08T10:01:31.183Z,52.37
2022-12-08T10:02:35.298Z,52.51
2022-12-08T10:03:39.379Z,52.49
2022-12-08T10:04:43.659Z,52.5
2022-12-08T10:05:47.795Z,52.28
2022-12-08T10:06:51.860Z,52.25
2022-12-08T10:07:56.186Z,52.3
2022-12-08T10:09:00.336Z,52.32
2022-12-08T10:10:05.791Z,52.27
2022-12-08T10:11:09.990Z,52.31
2022-12-08T10:12:14.051Z,52.29
2022-12-08T10:13:18.148Z,52.52
2022-12-08T10:14:22.235Z,52.27
2022-12-08T10:15:26.342Z,52.35
2022-12-08T10:16:32.271Z,52.26
2022-12-08T10:17:36.407Z,52.41
2022-12-08T10:18:40.491Z,52.3
2022-12-08T10:19:44.560Z,52.58
2022-12-08T10:20:48.722Z,52.39
2022-12-08T10:21:52.947Z,52.37
2022-12-08T10:22:57.022Z,52.32
2022-12-08T10:24:01.112Z,52.3
2022-12-08T10:25:05.209Z,52.32
2022-12-08T10:26:09.310Z,52.23
2022-12-08T10:27:13.441Z,52.27
2022-12-08T10:28:17.540Z,52.25
2022-12-08T10:29:21.632Z,52.59
2022-12-08T10:30:25.756Z,52.25
2022-12-08T10:31:30.127Z,52.24
2022-12-08T10:32:34.246Z,52.4
2022-12-08T10:33:38.356Z,52.27
2022-12-08T10:34:42.430Z,52.43
2022-12-08T10:35:46.520Z,52.25
2022-12-08T10:36:50.627Z,52.28
2022-12-08T10:37:54.725Z,52.42
2022-12-08T10:38:59.287Z,52.33
2022-12-08T10:40:04.698Z,52.32
2022-12-08T10:41:08.943Z,52.38
2022-12-08T10:42:13.055Z,52.4
2022-12-08T10:43:17.138Z,52.22
2022-12-08T10:44:21.220Z,52.44
2022-12-08T10:45:25.335Z,52.27
2022-12-08T10:46:29.648Z,52.23
2022-12-08T10:47:33.789Z,52.4
2022-12-08T10:48:37.867Z,52.47
2022-12-08T10:49:42.053Z,52.29
2022-12-08T10:50:46.137Z,52.36
2022-12-08T10:51:50.230Z,52.24
2022-12-08T10:52:54.338Z,52.45
2022-12-08T10:53:58.436Z,52.51
2022-12-08T10:55:02.523Z,52.25
2022-12-08T10:56:06.790Z,52.42
2022-12-08T10:57:10.921Z,52.22
2022-12-08T10:58:15.010Z,52.38
2022-12-08T10:59:19.087Z,52.23
2022-12-08T11:00:23.178Z,52.21
2022-12-08T11:01:27.585Z,52.33
2022-12-08T11:02:32.031Z,52.33
2022-12-08T11:03:36.195Z,52.34
2022-12-08T11:04:40.327Z,52.31
2022-12-08T11:05:44.447Z,52.29
2022-12-08T11:06:48.548Z,52.49
2022-12-08T11:07:52.881Z,52.3
2022-12-08T11:08:57.050Z,52.37
2022-12-08T11:10:01.241Z,52.37
2022-12-08T11:11:05.483Z,52.26
2022-12-08T11:12:09.566Z,52.3
2022-12-08T11:13:13.651Z,52.35
2022-12-08T11:14:17.772Z,52.22
2022-12-08T11:15:21.907Z,52.41
2022-12-08T11:16:26.408Z,52.31
2022-12-08T11:17:30.489Z,52.27
2022-12-08T11:18:34.562Z,52.25
2022-12-08T11:19:38.678Z,52.35
2022-12-08T11:20:42.756Z,52.39
2022-12-08T11:21:46.832Z,52.38
2022-12-08T11:22:50.922Z,52.21
2022-12-08T11:23:55.008Z,52.44
2022-12-08T11:24:59.113Z,52.24
2022-12-08T11:26:03.195Z,52.28
2022-12-08T11:27:07.366Z,52.26
2022-12-08T11:28:11.463Z,52.19
2022-12-08T11:29:15.577Z,52.26
2022-12-08T11:30:20.875Z,52.17
2022-12-08T11:31:25.278Z,52.21
2022-12-08T11:32:29.421Z,52.47
2022-12-08T11:33:33.481Z,52.26
2022-12-08T11:34:37.582Z,52.18
2022-12-08T11:35:41.667Z,52.27
2022-12-08T11:36:45.787Z,52.41
2022-12-08T11:37:49.913Z,52.34
2022-12-08T11:38:53.981Z,52.23
2022-12-08T11:39:58.071Z,52.31
2022-12-08T11:41:02.159Z,52.24
2022-12-08T11:42:06.259Z,52.28
2022-12-08T11:43:10.328Z,52.16
2022-12-08T11:44:14.426Z,52.32
2022-12-08T11:45:18.531Z,52.17
2022-12-08T11:46:22.871Z,52.28
2022-12-08T11:47:26.995Z,52.18
2022-12-08T11:48:31.098Z,52.24
2022-12-08T11:49:35.212Z,52.16
2022-12-08T11:50:39.330Z,52.19
2022-12-08T11:51:43.454Z,52.3
2022-12-08T11:52:47.519Z,52.2
2022-12-08T11:53:51.650Z,52.23
2022-12-08T11:54:55.740Z,52.19
2022-12-08T11:55:59.819Z,52.31
2022-12-08T11:57:03.935Z,52.3
2022-12-08T11:58:08.270Z,52.17
2022-12-08T11:59:12.377Z,52.21
2022-12-08T12:00:16.620Z,52.15
2022-12-08T12:01:20.742Z,52.41
2022-12-08T12:02:25.083Z,52.29
2022-12-08T12:03:29.419Z,52.15
2022-12-08T12:04:33.563Z,52.11
2022-12-08T12:06:38.563Z,52.3
2022-12-08T12:07:57.338Z,52.17
2022-12-08T12:09:01.443Z,52.06
2022-12-08T12:10:07.068Z,52.01
2022-12-08T12:11:11.342Z,51.95
2022-12-08T12:12:15.440Z,51.87
2022-12-08T12:13:19.545Z,51.8
2022-12-08T12:14:23.602Z,51.67
2022-12-08T12:15:27.678Z,51.51
2022-12-08T12:16:31.942Z,51.37
2022-12-08T12:17:36.054Z,51.19
2022-12-08T12:18:40.148Z,51.08
2022-12-08T12:19:44.230Z,51.01
2022-12-08T12:20:48.325Z,50.92
2022-12-08T12:21:52.454Z,50.84
2022-12-08T12:22:56.512Z,50.72
2022-12-08T12:24:00.611Z,50.64
2022-12-08T12:25:04.684Z,50.56
2022-12-08T12:26:08.759Z,50.56
2022-12-08T12:27:12.821Z,50.56
2022-12-08T12:28:16.884Z,50.53
2022-12-08T12:29:21.023Z,50.59
2022-12-08T12:30:25.372Z,50.58
2022-12-08T12:31:29.495Z,50.59
2022-12-08T12:32:33.554Z,50.65
2022-12-08T12:33:37.690Z,50.68
2022-12-08T12:34:41.795Z,50.71
2022-12-08T12:35:45.901Z,50.73
2022-12-08T12:36:49.995Z,50.73
2022-12-08T12:37:54.058Z,50.72
2022-12-08T12:38:58.166Z,50.58
2022-12-08T12:40:02.707Z,50.48
2022-12-08T12:41:06.955Z,50.36
2022-12-08T12:42:11.020Z,50.32
2022-12-08T12:43:15.094Z,50.26
2022-12-08T12:44:19.179Z,50.15
2022-12-08T12:45:23.348Z,50.07
2022-12-08T12:46:27.668Z,50.01
2022-12-08T12:47:31.789Z,49.89
2022-12-08T12:48:35.863Z,49.85
2022-12-08T12:49:39.963Z,49.85
2022-12-08T12:50:44.053Z,49.77
2022-12-08T12:51:48.130Z,49.76
2022-12-08T12:52:52.233Z,49.74
2022-12-08T12:53:56.304Z,49.68
2022-12-08T12:55:00.407Z,49.79
2022-12-08T12:56:04.553Z,49.78
2022-12-08T12:57:08.655Z,49.84
2022-12-08T12:58:12.732Z,49.82
2022-12-08T12:59:16.820Z,49.87
2022-12-08T13:00:20.903Z,49.92
2022-12-08T13:01:25.150Z,49.91
2022-12-08T13:02:29.542Z,49.93
2022-12-08T13:03:33.683Z,49.9
2022-12-08T13:04:37.778Z,49.8
2022-12-08T13:05:41.980Z,49.81
2022-12-08T13:06:46.058Z,49.89
2022-12-08T13:07:50.320Z,49.88
2022-12-08T13:08:54.446Z,49.92
2022-12-08T13:09:58.511Z,49.93
2022-12-08T13:11:02.661Z,49.92
2022-12-08T13:12:06.790Z,49.93
2022-12-08T13:13:10.906Z,49.98
2022-12-08T13:14:14.988Z,49.97
2022-12-08T13:15:19.130Z,50.07
2022-12-08T13:16:23.390Z,50.11
2022-12-08T13:17:27.548Z,50.16
2022-12-08T13:18:31.650Z,50.22
2022-12-08T13:19:35.735Z,50.25
2022-12-08T13:20:39.824Z,50.32
2022-12-08T13:21:44.029Z,50.35
2022-12-08T13:22:48.127Z,50.42
2022-12-08T13:23:52.197Z,50.44
2022-12-08T13:24:56.265Z,50.49
2022-12-08T13:26:00.321Z,50.52
2022-12-08T13:27:04.799Z,50.53
2022-12-08T13:28:08.892Z,50.59
2022-12-08T13:29:12.959Z,50.63
2022-12-08T13:30:17.041Z,50.68
2022-12-08T13:31:21.321Z,50.7
2022-12-08T13:32:25.451Z,50.72
2022-12-08T13:33:29.554Z,50.71
2022-12-08T13:34:33.654Z,50.74
2022-12-08T13:35:37.756Z,50.77
2022-12-08T13:36:41.843Z,50.81
2022-12-08T13:37:56.519Z,50.8
2022-12-08T13:39:00.622Z,50.85
2022-12-08T13:40:06.072Z,50.84
2022-12-08T13:41:10.327Z,50.88
2022-12-08T13:42:14.407Z,50.88
2022-12-08T13:43:18.457Z,50.91
2022-12-08T13:46:26.503Z,50.93
2022-12-08T13:50:55.582Z,50.95
2022-12-08T13:57:50.931Z,51.06
2022-12-08T13:58:55.045Z,51.02
2022-12-08T13:59:59.122Z,51.05
2022-12-08T14:01:03.435Z,51.02
2022-12-08T14:02:07.623Z,51.02
2022-12-08T14:03:11.971Z,51.04
2022-12-08T14:05:19.325Z,51.06
2022-12-08T14:06:23.658Z,51.01
2022-12-08T14:07:27.769Z,51.05
2022-12-08T14:09:10.908Z,51.12